sensor_id;sensor_type;location;lat;lon;timestamp;temperature;humidity
14210;DHT22;7188;56.070;12.698;2023-04-06T00:02:09;2.70;1.00
14210;DHT22;7188;56.070;12.698;2023-04-06T00:04:35;2.70;99.90
14210;DHT22;7188;56.070;12.698;2023-04-06T00:07:01;2.60;99.90
14210;DHT22;7188;56.070;12.698;2023-04-06T00:09:26;2.60;99.90
14210;DHT22;7188;56.070;12.698;2023-04-06T00:11:52;2.70;1.00
14210;DHT22;7188;56.070;12.698;2023-04-06T00:14:17;2.70;99.90
14210;DHT22;7188;56.070;12.698;2023-04-06T00:16:43;2.60;99.90
14210;DHT22;7188;56.070;12.698;2023-04-06T00:19:09;2.60;99.90
14210;DHT22;7188;56.070;12.698;2023-04-06T00:21:34;2.90;1.00
14210;DHT22;7188;56.070;12.698;2023-04-06T00:24:00;3.00;1.00
14210;DHT22;7188;56.070;12.698;2023-04-06T00:26:25;2.80;99.90
14210;DHT22;7188;56.070;12.698;2023-04-06T00:28:56;2.70;99.90
14210;DHT22;7188;56.070;12.698;2023-04-06T00:31:24;2.60;99.90
14210;DHT22;7188;56.070;12.698;2023-04-06T00:33:49;2.90;1.00
14210;DHT22;7188;56.070;12.698;2023-04-06T00:36:15;2.90;99.90
14210;DHT22;7188;56.070;12.698;2023-04-06T00:38:40;2.80;99.90
14210;DHT22;7188;56.070;12.698;2023-04-06T00:41:06;2.80;99.90
14210;DHT22;7188;56.070;12.698;2023-04-06T00:43:32;2.60;99.90
14210;DHT22;7188;56.070;12.698;2023-04-06T00:45:57;2.60;99.90
14210;DHT22;7188;56.070;12.698;2023-04-06T00:48:23;2.70;1.00
14210;DHT22;7188;56.070;12.698;2023-04-06T00:50:49;2.70;99.90
14210;DHT22;7188;56.070;12.698;2023-04-06T00:53:14;2.60;99.90
14210;DHT22;7188;56.070;12.698;2023-04-06T00:55:40;2.70;1.00
14210;DHT22;7188;56.070;12.698;2023-04-06T00:58:11;2.60;99.90
14210;DHT22;7188;56.070;12.698;2023-04-06T01:00:37;2.60;1.00
14210;DHT22;7188;56.070;12.698;2023-04-06T01:03:02;2.60;1.00
14210;DHT22;7188;56.070;12.698;2023-04-06T01:05:35;3.00;1.00
14210;DHT22;7188;56.070;12.698;2023-04-06T01:08:08;3.00;1.00
14210;DHT22;7188;56.070;12.698;2023-04-06T01:10:34;3.30;1.00
14210;DHT22;7188;56.070;12.698;2023-04-06T01:12:59;3.40;99.90
14210;DHT22;7188;56.070;12.698;2023-04-06T01:15:25;3.30;99.90
14210;DHT22;7188;56.070;12.698;2023-04-06T01:17:52;3.20;99.90
14210;DHT22;7188;56.070;12.698;2023-04-06T01:20:17;3.10;99.90
14210;DHT22;7188;56.070;12.698;2023-04-06T01:22:43;3.10;99.90
14210;DHT22;7188;56.070;12.698;2023-04-06T01:25:09;3.40;99.90
14210;DHT22;7188;56.070;12.698;2023-04-06T01:27:35;3.40;99.90
14210;DHT22;7188;56.070;12.698;2023-04-06T01:30:01;3.30;99.90
14210;DHT22;7188;56.070;12.698;2023-04-06T01:32:26;3.40;99.90
14210;DHT22;7188;56.070;12.698;2023-04-06T01:34:52;3.30;1.50
14210;DHT22;7188;56.070;12.698;2023-04-06T01:37:18;3.20;1.00
14210;DHT22;7188;56.070;12.698;2023-04-06T01:39:44;3.10;7.80
14210;DHT22;7188;56.070;12.698;2023-04-06T01:42:09;3.20;99.90
14210;DHT22;7188;56.070;12.698;2023-04-06T01:44:35;3.10;1.00
14210;DHT22;7188;56.070;12.698;2023-04-06T01:47:01;3.10;92.10
14210;DHT22;7188;56.070;12.698;2023-04-06T01:49:27;3.30;99.90
14210;DHT22;7188;56.070;12.698;2023-04-06T01:51:52;3.30;1.00
14210;DHT22;7188;56.070;12.698;2023-04-06T01:54:19;3.20;1.00
14210;DHT22;7188;56.070;12.698;2023-04-06T01:56:45;3.20;1.00
14210;DHT22;7188;56.070;12.698;2023-04-06T01:59:11;3.30;1.00
14210;DHT22;7188;56.070;12.698;2023-04-06T02:01:37;3.30;1.00
14210;DHT22;7188;56.070;12.698;2023-04-06T02:04:02;3.20;1.00
14210;DHT22;7188;56.070;12.698;2023-04-06T02:06:28;3.20;1.00
14210;DHT22;7188;56.070;12.698;2023-04-06T02:08:53;3.10;1.00
14210;DHT22;7188;56.070;12.698;2023-04-06T02:11:19;3.10;1.00
14210;DHT22;7188;56.070;12.698;2023-04-06T02:13:44;3.00;1.00
14210;DHT22;7188;56.070;12.698;2023-04-06T02:16:10;3.10;99.90
14210;DHT22;7188;56.070;12.698;2023-04-06T02:18:36;3.00;99.90
14210;DHT22;7188;56.070;12.698;2023-04-06T02:21:02;2.90;99.90
14210;DHT22;7188;56.070;12.698;2023-04-06T02:23:27;2.90;99.90
14210;DHT22;7188;56.070;12.698;2023-04-06T02:25:53;2.90;1.00
14210;DHT22;7188;56.070;12.698;2023-04-06T02:28:18;2.90;1.00
14210;DHT22;7188;56.070;12.698;2023-04-06T02:30:44;2.80;1.00
14210;DHT22;7188;56.070;12.698;2023-04-06T02:33:10;2.70;1.00
14210;DHT22;7188;56.070;12.698;2023-04-06T02:35:35;2.80;99.90
14210;DHT22;7188;56.070;12.698;2023-04-06T02:38:01;2.90;99.90
14210;DHT22;7188;56.070;12.698;2023-04-06T02:40:26;3.00;99.90
14210;DHT22;7188;56.070;12.698;2023-04-06T02:42:52;3.10;99.90
14210;DHT22;7188;56.070;12.698;2023-04-06T02:45:18;2.90;6.40
14210;DHT22;7188;56.070;12.698;2023-04-06T02:47:44;2.90;99.90
14210;DHT22;7188;56.070;12.698;2023-04-06T02:50:10;2.90;99.90
14210;DHT22;7188;56.070;12.698;2023-04-06T02:52:35;2.90;99.90
14210;DHT22;7188;56.070;12.698;2023-04-06T02:55:01;2.90;1.00
14210;DHT22;7188;56.070;12.698;2023-04-06T02:57:27;3.00;99.90
14210;DHT22;7188;56.070;12.698;2023-04-06T02:59:52;3.00;1.00
14210;DHT22;7188;56.070;12.698;2023-04-06T03:02:18;2.90;99.90
14210;DHT22;7188;56.070;12.698;2023-04-06T03:04:44;3.00;1.00
14210;DHT22;7188;56.070;12.698;2023-04-06T03:07:09;3.00;1.00
14210;DHT22;7188;56.070;12.698;2023-04-06T03:09:37;3.00;1.00
14210;DHT22;7188;56.070;12.698;2023-04-06T03:12:03;3.00;1.00
14210;DHT22;7188;56.070;12.698;2023-04-06T03:14:28;3.10;1.00
14210;DHT22;7188;56.070;12.698;2023-04-06T03:16:54;3.10;1.00
14210;DHT22;7188;56.070;12.698;2023-04-06T03:19:20;3.10;1.00
14210;DHT22;7188;56.070;12.698;2023-04-06T03:21:45;3.20;15.70
14210;DHT22;7188;56.070;12.698;2023-04-06T03:24:11;3.30;1.00
14210;DHT22;7188;56.070;12.698;2023-04-06T03:26:39;3.40;1.00
14210;DHT22;7188;56.070;12.698;2023-04-06T03:29:04;3.40;1.00
14210;DHT22;7188;56.070;12.698;2023-04-06T03:31:30;3.30;1.00
14210;DHT22;7188;56.070;12.698;2023-04-06T03:33:56;3.30;1.00
14210;DHT22;7188;56.070;12.698;2023-04-06T03:36:21;3.40;1.00
14210;DHT22;7188;56.070;12.698;2023-04-06T03:38:47;3.50;1.00
14210;DHT22;7188;56.070;12.698;2023-04-06T03:41:12;3.50;1.00
14210;DHT22;7188;56.070;12.698;2023-04-06T03:43:38;3.60;1.00
14210;DHT22;7188;56.070;12.698;2023-04-06T03:46:04;3.60;99.90
14210;DHT22;7188;56.070;12.698;2023-04-06T03:48:29;3.60;99.90
14210;DHT22;7188;56.070;12.698;2023-04-06T03:50:55;3.40;99.90
14210;DHT22;7188;56.070;12.698;2023-04-06T03:53:21;3.40;99.90
14210;DHT22;7188;56.070;12.698;2023-04-06T03:55:47;3.30;99.90
14210;DHT22;7188;56.070;12.698;2023-04-06T03:58:12;3.40;1.00
14210;DHT22;7188;56.070;12.698;2023-04-06T04:00:38;3.40;1.00
14210;DHT22;7188;56.070;12.698;2023-04-06T04:03:03;3.30;1.00
14210;DHT22;7188;56.070;12.698;2023-04-06T04:05:29;3.30;1.00
14210;DHT22;7188;56.070;12.698;2023-04-06T04:07:55;3.40;99.90
14210;DHT22;7188;56.070;12.698;2023-04-06T04:10:48;3.40;99.90
14210;DHT22;7188;56.070;12.698;2023-04-06T04:13:13;3.40;99.90
14210;DHT22;7188;56.070;12.698;2023-04-06T04:15:39;3.40;99.90
14210;DHT22;7188;56.070;12.698;2023-04-06T04:18:17;3.50;1.00
14210;DHT22;7188;56.070;12.698;2023-04-06T04:20:43;3.50;1.00
14210;DHT22;7188;56.070;12.698;2023-04-06T04:23:08;3.50;99.90
14210;DHT22;7188;56.070;12.698;2023-04-06T04:25:34;3.50;99.90
14210;DHT22;7188;56.070;12.698;2023-04-06T04:27:59;3.40;99.90
14210;DHT22;7188;56.070;12.698;2023-04-06T04:30:25;3.40;1.00
14210;DHT22;7188;56.070;12.698;2023-04-06T04:32:51;3.40;1.00
14210;DHT22;7188;56.070;12.698;2023-04-06T04:35:16;3.50;99.90
14210;DHT22;7188;56.070;12.698;2023-04-06T04:37:42;3.60;1.00
14210;DHT22;7188;56.070;12.698;2023-04-06T04:40:08;3.70;97.30
14210;DHT22;7188;56.070;12.698;2023-04-06T04:42:34;3.80;99.90
14210;DHT22;7188;56.070;12.698;2023-04-06T04:45:00;3.90;1.00
14210;DHT22;7188;56.070;12.698;2023-04-06T04:47:25;3.90;1.00
14210;DHT22;7188;56.070;12.698;2023-04-06T04:49:51;4.00;35.90
14210;DHT22;7188;56.070;12.698;2023-04-06T04:52:16;4.10;1.00
14210;DHT22;7188;56.070;12.698;2023-04-06T04:54:42;4.10;7.20
14210;DHT22;7188;56.070;12.698;2023-04-06T04:57:08;4.20;1.00
14210;DHT22;7188;56.070;12.698;2023-04-06T04:59:34;4.20;99.90
14210;DHT22;7188;56.070;12.698;2023-04-06T05:02:00;4.30;1.00
14210;DHT22;7188;56.070;12.698;2023-04-06T05:04:26;4.40;99.90
14210;DHT22;7188;56.070;12.698;2023-04-06T05:07:05;4.40;1.00
14210;DHT22;7188;56.070;12.698;2023-04-06T05:09:31;4.40;99.90
14210;DHT22;7188;56.070;12.698;2023-04-06T05:11:58;4.40;99.90
14210;DHT22;7188;56.070;12.698;2023-04-06T05:14:24;4.40;1.00
14210;DHT22;7188;56.070;12.698;2023-04-06T05:16:50;4.50;1.00
14210;DHT22;7188;56.070;12.698;2023-04-06T05:19:15;4.50;1.00
14210;DHT22;7188;56.070;12.698;2023-04-06T05:21:41;4.50;1.00
14210;DHT22;7188;56.070;12.698;2023-04-06T05:24:07;4.40;99.90
14210;DHT22;7188;56.070;12.698;2023-04-06T05:26:32;4.50;99.90
14210;DHT22;7188;56.070;12.698;2023-04-06T05:28:58;4.60;99.90
14210;DHT22;7188;56.070;12.698;2023-04-06T05:31:23;4.60;99.90
14210;DHT22;7188;56.070;12.698;2023-04-06T05:33:49;4.60;99.90
14210;DHT22;7188;56.070;12.698;2023-04-06T05:36:15;4.60;17.00
14210;DHT22;7188;56.070;12.698;2023-04-06T05:38:42;4.60;1.00
14210;DHT22;7188;56.070;12.698;2023-04-06T05:41:08;4.60;1.00
14210;DHT22;7188;56.070;12.698;2023-04-06T05:43:33;4.70;1.00
14210;DHT22;7188;56.070;12.698;2023-04-06T05:45:59;4.70;1.00
14210;DHT22;7188;56.070;12.698;2023-04-06T05:48:25;4.80;1.00
14210;DHT22;7188;56.070;12.698;2023-04-06T05:50:51;4.80;1.00
14210;DHT22;7188;56.070;12.698;2023-04-06T05:53:17;4.90;1.00
14210;DHT22;7188;56.070;12.698;2023-04-06T05:55:42;5.00;99.90
14210;DHT22;7188;56.070;12.698;2023-04-06T05:58:09;5.10;99.90
14210;DHT22;7188;56.070;12.698;2023-04-06T06:00:34;5.20;1.00
14210;DHT22;7188;56.070;12.698;2023-04-06T06:03:00;5.20;1.00
14210;DHT22;7188;56.070;12.698;2023-04-06T06:05:29;5.30;99.90
14210;DHT22;7188;56.070;12.698;2023-04-06T06:07:55;5.50;39.30
14210;DHT22;7188;56.070;12.698;2023-04-06T06:10:21;5.60;1.00
14210;DHT22;7188;56.070;12.698;2023-04-06T06:12:46;5.70;1.00
14210;DHT22;7188;56.070;12.698;2023-04-06T06:15:12;5.70;1.00
14210;DHT22;7188;56.070;12.698;2023-04-06T06:17:37;5.70;1.00
14210;DHT22;7188;56.070;12.698;2023-04-06T06:20:08;5.70;1.00
14210;DHT22;7188;56.070;12.698;2023-04-06T06:22:33;5.70;1.00
14210;DHT22;7188;56.070;12.698;2023-04-06T06:24:59;5.60;1.00
14210;DHT22;7188;56.070;12.698;2023-04-06T06:27:25;5.60;1.00
14210;DHT22;7188;56.070;12.698;2023-04-06T06:29:50;5.60;1.00
14210;DHT22;7188;56.070;12.698;2023-04-06T06:32:16;5.50;99.90
14210;DHT22;7188;56.070;12.698;2023-04-06T06:34:41;5.60;99.90
14210;DHT22;7188;56.070;12.698;2023-04-06T06:37:07;5.60;99.90
14210;DHT22;7188;56.070;12.698;2023-04-06T06:39:32;5.60;99.90
14210;DHT22;7188;56.070;12.698;2023-04-06T06:41:58;5.60;99.90
14210;DHT22;7188;56.070;12.698;2023-04-06T06:44:26;5.70;94.20
14210;DHT22;7188;56.070;12.698;2023-04-06T06:46:52;5.70;1.00
14210;DHT22;7188;56.070;12.698;2023-04-06T06:49:18;5.80;1.00
14210;DHT22;7188;56.070;12.698;2023-04-06T06:51:44;6.00;1.00
14210;DHT22;7188;56.070;12.698;2023-04-06T06:54:11;6.10;1.00
14210;DHT22;7188;56.070;12.698;2023-04-06T06:56:36;6.10;1.00
14210;DHT22;7188;56.070;12.698;2023-04-06T06:59:03;6.00;1.00
14210;DHT22;7188;56.070;12.698;2023-04-06T07:01:32;6.00;1.00
14210;DHT22;7188;56.070;12.698;2023-04-06T07:03:58;6.00;1.00
14210;DHT22;7188;56.070;12.698;2023-04-06T07:06:23;5.90;1.00
14210;DHT22;7188;56.070;12.698;2023-04-06T07:08:49;5.90;1.00
14210;DHT22;7188;56.070;12.698;2023-04-06T07:11:14;6.00;1.00
14210;DHT22;7188;56.070;12.698;2023-04-06T07:13:41;6.20;1.00
14210;DHT22;7188;56.070;12.698;2023-04-06T07:16:07;6.40;99.90
14210;DHT22;7188;56.070;12.698;2023-04-06T07:18:33;6.50;99.90
14210;DHT22;7188;56.070;12.698;2023-04-06T07:20:58;6.50;99.90
14210;DHT22;7188;56.070;12.698;2023-04-06T07:23:24;6.70;99.90
14210;DHT22;7188;56.070;12.698;2023-04-06T07:25:49;6.80;99.90
14210;DHT22;7188;56.070;12.698;2023-04-06T07:28:17;6.90;99.90
14210;DHT22;7188;56.070;12.698;2023-04-06T07:30:43;7.00;99.90
14210;DHT22;7188;56.070;12.698;2023-04-06T07:33:09;7.00;99.90
14210;DHT22;7188;56.070;12.698;2023-04-06T07:35:35;7.00;99.90
14210;DHT22;7188;56.070;12.698;2023-04-06T07:38:02;6.90;99.90
14210;DHT22;7188;56.070;12.698;2023-04-06T07:40:28;7.00;99.90
14210;DHT22;7188;56.070;12.698;2023-04-06T07:42:53;7.10;99.90
14210;DHT22;7188;56.070;12.698;2023-04-06T07:45:19;7.00;74.00
14210;DHT22;7188;56.070;12.698;2023-04-06T07:47:45;7.10;58.00
14210;DHT22;7188;56.070;12.698;2023-04-06T07:50:11;7.00;24.30
14210;DHT22;7188;56.070;12.698;2023-04-06T07:52:38;7.00;7.90
14210;DHT22;7188;56.070;12.698;2023-04-06T07:55:04;6.90;7.00
14210;DHT22;7188;56.070;12.698;2023-04-06T07:57:30;6.90;7.60
14210;DHT22;7188;56.070;12.698;2023-04-06T07:59:55;7.00;10.50
14210;DHT22;7188;56.070;12.698;2023-04-06T08:02:21;7.00;8.10
14210;DHT22;7188;56.070;12.698;2023-04-06T08:04:47;7.00;1.00
14210;DHT22;7188;56.070;12.698;2023-04-06T08:07:13;7.00;1.00
14210;DHT22;7188;56.070;12.698;2023-04-06T08:09:38;7.10;1.00
14210;DHT22;7188;56.070;12.698;2023-04-06T08:12:04;7.10;1.00
14210;DHT22;7188;56.070;12.698;2023-04-06T08:14:29;7.10;1.00
14210;DHT22;7188;56.070;12.698;2023-04-06T08:16:55;7.10;1.00
14210;DHT22;7188;56.070;12.698;2023-04-06T08:19:21;7.20;1.00
14210;DHT22;7188;56.070;12.698;2023-04-06T08:21:46;7.30;1.00
14210;DHT22;7188;56.070;12.698;2023-04-06T08:24:13;7.50;1.00
14210;DHT22;7188;56.070;12.698;2023-04-06T08:26:49;7.50;1.00
14210;DHT22;7188;56.070;12.698;2023-04-06T08:29:15;7.40;1.00
14210;DHT22;7188;56.070;12.698;2023-04-06T08:31:41;7.40;1.00
14210;DHT22;7188;56.070;12.698;2023-04-06T08:34:07;7.50;1.00
14210;DHT22;7188;56.070;12.698;2023-04-06T08:36:32;7.60;1.00
14210;DHT22;7188;56.070;12.698;2023-04-06T08:38:59;7.60;1.00
14210;DHT22;7188;56.070;12.698;2023-04-06T08:41:25;7.70;1.00
14210;DHT22;7188;56.070;12.698;2023-04-06T08:44:01;7.80;1.00
14210;DHT22;7188;56.070;12.698;2023-04-06T08:46:29;7.90;1.00
14210;DHT22;7188;56.070;12.698;2023-04-06T08:49:00;8.00;1.00
14210;DHT22;7188;56.070;12.698;2023-04-06T08:51:27;8.00;1.00
14210;DHT22;7188;56.070;12.698;2023-04-06T08:53:54;8.20;1.00
14210;DHT22;7188;56.070;12.698;2023-04-06T08:56:22;8.30;1.00
14210;DHT22;7188;56.070;12.698;2023-04-06T08:58:48;8.30;1.00
14210;DHT22;7188;56.070;12.698;2023-04-06T09:01:14;8.20;1.00
14210;DHT22;7188;56.070;12.698;2023-04-06T09:03:42;8.30;1.00
14210;DHT22;7188;56.070;12.698;2023-04-06T09:06:09;8.50;1.00
14210;DHT22;7188;56.070;12.698;2023-04-06T09:08:37;8.60;1.00
14210;DHT22;7188;56.070;12.698;2023-04-06T09:11:04;8.50;1.00
14210;DHT22;7188;56.070;12.698;2023-04-06T09:13:52;8.50;1.00
14210;DHT22;7188;56.070;12.698;2023-04-06T09:16:18;8.60;1.00
14210;DHT22;7188;56.070;12.698;2023-04-06T09:18:45;8.50;1.00
14210;DHT22;7188;56.070;12.698;2023-04-06T09:21:11;8.60;1.00
14210;DHT22;7188;56.070;12.698;2023-04-06T09:23:38;8.60;1.00
14210;DHT22;7188;56.070;12.698;2023-04-06T09:26:11;8.70;1.00
14210;DHT22;7188;56.070;12.698;2023-04-06T09:28:51;8.80;1.00
14210;DHT22;7188;56.070;12.698;2023-04-06T09:31:23;8.80;1.00
14210;DHT22;7188;56.070;12.698;2023-04-06T09:33:49;8.90;1.00
14210;DHT22;7188;56.070;12.698;2023-04-06T09:36:14;8.90;1.00
14210;DHT22;7188;56.070;12.698;2023-04-06T09:38:57;9.00;1.00
14210;DHT22;7188;56.070;12.698;2023-04-06T09:44:02;8.90;1.00
14210;DHT22;7188;56.070;12.698;2023-04-06T09:46:31;9.00;1.00
14210;DHT22;7188;56.070;12.698;2023-04-06T09:48:58;8.80;1.00
14210;DHT22;7188;56.070;12.698;2023-04-06T09:51:24;8.70;1.00
14210;DHT22;7188;56.070;12.698;2023-04-06T09:53:52;8.50;1.00
14210;DHT22;7188;56.070;12.698;2023-04-06T09:56:24;8.80;1.00
14210;DHT22;7188;56.070;12.698;2023-04-06T09:58:58;9.10;1.00
14210;DHT22;7188;56.070;12.698;2023-04-06T10:01:29;9.30;1.00
14210;DHT22;7188;56.070;12.698;2023-04-06T10:06:39;9.50;1.00
14210;DHT22;7188;56.070;12.698;2023-04-06T10:09:06;9.50;1.00
14210;DHT22;7188;56.070;12.698;2023-04-06T10:11:33;9.50;1.00
14210;DHT22;7188;56.070;12.698;2023-04-06T10:14:00;9.60;1.00
14210;DHT22;7188;56.070;12.698;2023-04-06T10:16:25;9.50;1.00
14210;DHT22;7188;56.070;12.698;2023-04-06T10:18:58;9.30;1.00
14210;DHT22;7188;56.070;12.698;2023-04-06T10:21:27;9.20;1.00
14210;DHT22;7188;56.070;12.698;2023-04-06T10:23:59;9.00;1.00
14210;DHT22;7188;56.070;12.698;2023-04-06T10:26:25;9.00;1.00
14210;DHT22;7188;56.070;12.698;2023-04-06T10:28:50;9.20;1.00
14210;DHT22;7188;56.070;12.698;2023-04-06T10:31:27;9.40;1.00
14210;DHT22;7188;56.070;12.698;2023-04-06T10:33:54;9.60;1.00
14210;DHT22;7188;56.070;12.698;2023-04-06T10:36:26;9.70;1.00
14210;DHT22;7188;56.070;12.698;2023-04-06T10:38:59;9.90;1.00
14210;DHT22;7188;56.070;12.698;2023-04-06T10:41:42;9.70;1.00
14210;DHT22;7188;56.070;12.698;2023-04-06T10:44:08;9.50;1.00
14210;DHT22;7188;56.070;12.698;2023-04-06T10:46:34;9.20;1.00
14210;DHT22;7188;56.070;12.698;2023-04-06T10:49:12;9.40;1.00
14210;DHT22;7188;56.070;12.698;2023-04-06T10:51:39;9.40;1.00
14210;DHT22;7188;56.070;12.698;2023-04-06T10:54:09;9.40;1.00
14210;DHT22;7188;56.070;12.698;2023-04-06T10:56:37;9.40;1.00
14210;DHT22;7188;56.070;12.698;2023-04-06T10:59:05;9.30;1.00
14210;DHT22;7188;56.070;12.698;2023-04-06T11:01:31;9.10;1.00
14210;DHT22;7188;56.070;12.698;2023-04-06T11:03:57;9.00;1.00
14210;DHT22;7188;56.070;12.698;2023-04-06T11:06:27;9.20;1.00
14210;DHT22;7188;56.070;12.698;2023-04-06T11:08:55;9.40;1.00
14210;DHT22;7188;56.070;12.698;2023-04-06T11:11:22;9.30;1.00
14210;DHT22;7188;56.070;12.698;2023-04-06T11:13:53;9.20;1.00
14210;DHT22;7188;56.070;12.698;2023-04-06T11:16:24;9.00;1.00
14210;DHT22;7188;56.070;12.698;2023-04-06T11:24:14;9.10;1.00
14210;DHT22;7188;56.070;12.698;2023-04-06T11:29:12;9.00;1.00
14210;DHT22;7188;56.070;12.698;2023-04-06T11:31:53;9.10;1.00
14210;DHT22;7188;56.070;12.698;2023-04-06T11:34:20;9.20;1.00
14210;DHT22;7188;56.070;12.698;2023-04-06T11:36:48;9.60;1.00
14210;DHT22;7188;56.070;12.698;2023-04-06T11:39:19;9.80;1.00
14210;DHT22;7188;56.070;12.698;2023-04-06T11:41:49;10.00;1.00
14210;DHT22;7188;56.070;12.698;2023-04-06T11:44:15;10.20;1.00
14210;DHT22;7188;56.070;12.698;2023-04-06T11:46:50;10.50;1.00
14210;DHT22;7188;56.070;12.698;2023-04-06T11:49:17;10.60;1.00
14210;DHT22;7188;56.070;12.698;2023-04-06T11:51:42;10.60;1.00
14210;DHT22;7188;56.070;12.698;2023-04-06T11:54:08;10.60;1.00
14210;DHT22;7188;56.070;12.698;2023-04-06T11:56:33;10.50;1.00
14210;DHT22;7188;56.070;12.698;2023-04-06T11:59:05;10.60;1.00
14210;DHT22;7188;56.070;12.698;2023-04-06T12:01:30;10.50;1.00
14210;DHT22;7188;56.070;12.698;2023-04-06T12:03:56;10.40;1.00
14210;DHT22;7188;56.070;12.698;2023-04-06T12:06:23;10.40;1.00
14210;DHT22;7188;56.070;12.698;2023-04-06T12:08:48;10.40;1.00
14210;DHT22;7188;56.070;12.698;2023-04-06T12:11:14;10.50;1.00
14210;DHT22;7188;56.070;12.698;2023-04-06T12:13:39;10.50;1.00
14210;DHT22;7188;56.070;12.698;2023-04-06T12:16:05;10.30;1.00
14210;DHT22;7188;56.070;12.698;2023-04-06T12:18:31;10.50;1.00
14210;DHT22;7188;56.070;12.698;2023-04-06T12:20:57;10.70;1.00
14210;DHT22;7188;56.070;12.698;2023-04-06T12:23:22;10.80;1.00
14210;DHT22;7188;56.070;12.698;2023-04-06T12:25:48;10.50;1.00
14210;DHT22;7188;56.070;12.698;2023-04-06T12:28:13;10.20;1.00
14210;DHT22;7188;56.070;12.698;2023-04-06T12:30:39;10.00;1.00
14210;DHT22;7188;56.070;12.698;2023-04-06T12:33:06;10.10;1.00
14210;DHT22;7188;56.070;12.698;2023-04-06T12:35:35;10.30;1.00
14210;DHT22;7188;56.070;12.698;2023-04-06T12:38:02;10.60;1.00
14210;DHT22;7188;56.070;12.698;2023-04-06T12:40:27;10.70;1.00
14210;DHT22;7188;56.070;12.698;2023-04-06T12:42:53;10.90;1.00
14210;DHT22;7188;56.070;12.698;2023-04-06T12:45:18;11.00;1.00
14210;DHT22;7188;56.070;12.698;2023-04-06T12:47:44;11.10;1.00
14210;DHT22;7188;56.070;12.698;2023-04-06T12:50:10;11.00;1.00
14210;DHT22;7188;56.070;12.698;2023-04-06T12:52:36;10.90;1.00
14210;DHT22;7188;56.070;12.698;2023-04-06T12:55:02;11.00;1.00
14210;DHT22;7188;56.070;12.698;2023-04-06T12:57:28;11.10;1.00
14210;DHT22;7188;56.070;12.698;2023-04-06T12:59:54;11.10;1.00
14210;DHT22;7188;56.070;12.698;2023-04-06T13:02:20;11.10;1.00
14210;DHT22;7188;56.070;12.698;2023-04-06T13:04:46;11.30;1.00
14210;DHT22;7188;56.070;12.698;2023-04-06T13:07:13;11.30;1.00
14210;DHT22;7188;56.070;12.698;2023-04-06T13:09:39;11.40;1.00
14210;DHT22;7188;56.070;12.698;2023-04-06T13:12:05;11.40;1.00
14210;DHT22;7188;56.070;12.698;2023-04-06T13:14:31;11.40;1.00
14210;DHT22;7188;56.070;12.698;2023-04-06T13:16:57;11.40;1.00
14210;DHT22;7188;56.070;12.698;2023-04-06T13:19:22;11.50;1.00
14210;DHT22;7188;56.070;12.698;2023-04-06T13:21:48;11.60;1.00
14210;DHT22;7188;56.070;12.698;2023-04-06T13:24:14;11.50;1.00
14210;DHT22;7188;56.070;12.698;2023-04-06T13:26:40;11.60;1.00
14210;DHT22;7188;56.070;12.698;2023-04-06T13:29:06;11.60;1.00
14210;DHT22;7188;56.070;12.698;2023-04-06T13:31:31;11.80;1.00
14210;DHT22;7188;56.070;12.698;2023-04-06T13:33:57;11.90;1.00
14210;DHT22;7188;56.070;12.698;2023-04-06T13:36:23;11.90;1.00
14210;DHT22;7188;56.070;12.698;2023-04-06T13:38:48;11.90;1.00
14210;DHT22;7188;56.070;12.698;2023-04-06T13:41:21;11.80;1.00
14210;DHT22;7188;56.070;12.698;2023-04-06T13:43:47;11.60;1.00
14210;DHT22;7188;56.070;12.698;2023-04-06T13:46:13;11.80;1.00
14210;DHT22;7188;56.070;12.698;2023-04-06T13:48:38;11.60;1.00
14210;DHT22;7188;56.070;12.698;2023-04-06T13:51:14;11.50;1.00
14210;DHT22;7188;56.070;12.698;2023-04-06T13:53:40;11.30;1.00
14210;DHT22;7188;56.070;12.698;2023-04-06T13:56:07;11.10;1.00
14210;DHT22;7188;56.070;12.698;2023-04-06T13:58:33;11.00;1.00
14210;DHT22;7188;56.070;12.698;2023-04-06T14:01:04;10.90;1.00
14210;DHT22;7188;56.070;12.698;2023-04-06T14:03:30;11.00;1.00
14210;DHT22;7188;56.070;12.698;2023-04-06T14:05:55;10.80;1.00
14210;DHT22;7188;56.070;12.698;2023-04-06T14:08:24;10.60;1.00
14210;DHT22;7188;56.070;12.698;2023-04-06T14:10:50;10.50;1.00
14210;DHT22;7188;56.070;12.698;2023-04-06T14:13:15;10.50;1.00
14210;DHT22;7188;56.070;12.698;2023-04-06T14:15:42;10.40;1.00
14210;DHT22;7188;56.070;12.698;2023-04-06T14:18:08;10.10;1.00
14210;DHT22;7188;56.070;12.698;2023-04-06T14:20:34;10.10;1.00
14210;DHT22;7188;56.070;12.698;2023-04-06T14:23:03;10.10;1.00
14210;DHT22;7188;56.070;12.698;2023-04-06T14:25:29;10.10;1.00
14210;DHT22;7188;56.070;12.698;2023-04-06T14:27:59;9.90;1.00
14210;DHT22;7188;56.070;12.698;2023-04-06T14:30:26;9.70;1.00
14210;DHT22;7188;56.070;12.698;2023-04-06T14:32:56;9.70;1.00
14210;DHT22;7188;56.070;12.698;2023-04-06T14:35:22;9.60;1.00
14210;DHT22;7188;56.070;12.698;2023-04-06T14:37:48;9.70;1.00
14210;DHT22;7188;56.070;12.698;2023-04-06T14:40:13;9.60;1.00
14210;DHT22;7188;56.070;12.698;2023-04-06T14:42:39;9.50;1.00
14210;DHT22;7188;56.070;12.698;2023-04-06T14:45:05;9.50;1.00
14210;DHT22;7188;56.070;12.698;2023-04-06T14:47:31;9.70;1.00
14210;DHT22;7188;56.070;12.698;2023-04-06T14:49:57;9.80;1.00
14210;DHT22;7188;56.070;12.698;2023-04-06T14:52:23;9.90;1.00
14210;DHT22;7188;56.070;12.698;2023-04-06T14:54:48;9.80;1.00
14210;DHT22;7188;56.070;12.698;2023-04-06T14:57:14;9.70;1.00
14210;DHT22;7188;56.070;12.698;2023-04-06T14:59:39;9.60;1.00
14210;DHT22;7188;56.070;12.698;2023-04-06T15:02:05;9.70;1.00
14210;DHT22;7188;56.070;12.698;2023-04-06T15:04:34;9.80;1.00
14210;DHT22;7188;56.070;12.698;2023-04-06T15:07:00;9.80;1.00
14210;DHT22;7188;56.070;12.698;2023-04-06T15:09:25;9.60;1.00
14210;DHT22;7188;56.070;12.698;2023-04-06T15:11:51;9.70;1.00
14210;DHT22;7188;56.070;12.698;2023-04-06T15:14:17;9.50;1.00
14210;DHT22;7188;56.070;12.698;2023-04-06T15:16:42;9.50;1.00
14210;DHT22;7188;56.070;12.698;2023-04-06T15:19:08;9.40;1.00
14210;DHT22;7188;56.070;12.698;2023-04-06T15:21:35;9.20;1.00
14210;DHT22;7188;56.070;12.698;2023-04-06T15:24:00;9.30;1.00
14210;DHT22;7188;56.070;12.698;2023-04-06T15:26:26;9.20;1.00
14210;DHT22;7188;56.070;12.698;2023-04-06T15:28:52;9.00;1.00
14210;DHT22;7188;56.070;12.698;2023-04-06T15:31:18;9.00;1.00
14210;DHT22;7188;56.070;12.698;2023-04-06T15:33:45;8.90;1.00
14210;DHT22;7188;56.070;12.698;2023-04-06T15:36:22;8.80;1.00
14210;DHT22;7188;56.070;12.698;2023-04-06T15:38:50;8.70;1.00
14210;DHT22;7188;56.070;12.698;2023-04-06T15:41:16;8.50;1.00
14210;DHT22;7188;56.070;12.698;2023-04-06T15:43:42;8.60;1.00
14210;DHT22;7188;56.070;12.698;2023-04-06T15:46:07;8.70;1.00
14210;DHT22;7188;56.070;12.698;2023-04-06T15:48:33;8.70;1.00
14210;DHT22;7188;56.070;12.698;2023-04-06T15:50:59;8.70;1.00
14210;DHT22;7188;56.070;12.698;2023-04-06T15:53:25;8.50;1.00
14210;DHT22;7188;56.070;12.698;2023-04-06T15:55:50;8.50;1.00
14210;DHT22;7188;56.070;12.698;2023-04-06T15:58:16;8.50;1.00
14210;DHT22;7188;56.070;12.698;2023-04-06T16:00:41;8.40;1.00
14210;DHT22;7188;56.070;12.698;2023-04-06T16:03:07;8.40;1.00
14210;DHT22;7188;56.070;12.698;2023-04-06T16:05:33;8.40;1.00